sensor_id;sensor_type;location;lat;lon;timestamp;temperature;humidity
15131;DHT22;7666;50.920;4.628;2023-08-07T14:08:29;22.00;99.90
15131;DHT22;7666;50.920;4.628;2023-08-07T14:11:15;22.20;99.90
15131;DHT22;7666;50.920;4.628;2023-08-07T14:14:01;21.90;99.90
15131;DHT22;7666;50.920;4.628;2023-08-07T14:16:47;22.20;99.90
15131;DHT22;7666;50.920;4.628;2023-08-07T14:19:34;22.30;99.90
15131;DHT22;7666;50.920;4.628;2023-08-07T14:22:20;22.50;99.90
15131;DHT22;7666;50.920;4.628;2023-08-07T14:25:06;22.40;99.90
15131;DHT22;7666;50.920;4.628;2023-08-07T14:27:52;22.30;99.90
15131;DHT22;7666;50.920;4.628;2023-08-07T14:30:39;22.40;99.90
15131;DHT22;7666;50.920;4.628;2023-08-07T14:33:26;22.70;99.90
15131;DHT22;7666;50.920;4.628;2023-08-07T14:36:13;22.60;99.90
15131;DHT22;7666;50.920;4.628;2023-08-07T14:39:00;22.60;99.90
15131;DHT22;7666;50.920;4.628;2023-08-07T14:41:46;22.30;99.90
15131;DHT22;7666;50.920;4.628;2023-08-07T14:44:33;22.30;99.90
15131;DHT22;7666;50.920;4.628;2023-08-07T14:47:19;22.40;99.90
15131;DHT22;7666;50.920;4.628;2023-08-07T14:50:05;22.10;99.90
15131;DHT22;7666;50.920;4.628;2023-08-07T14:52:52;21.60;99.90
15131;DHT22;7666;50.920;4.628;2023-08-07T14:55:37;21.20;99.90
15131;DHT22;7666;50.920;4.628;2023-08-07T14:58:23;20.90;99.90
15131;DHT22;7666;50.920;4.628;2023-08-07T15:01:09;20.80;99.90
15131;DHT22;7666;50.920;4.628;2023-08-07T15:03:56;20.70;99.90
15131;DHT22;7666;50.920;4.628;2023-08-07T15:06:43;20.70;99.90
15131;DHT22;7666;50.920;4.628;2023-08-07T15:09:32;20.90;99.90
15131;DHT22;7666;50.920;4.628;2023-08-07T15:12:18;20.70;99.90
15131;DHT22;7666;50.920;4.628;2023-08-07T15:15:04;20.60;99.90
15131;DHT22;7666;50.920;4.628;2023-08-07T15:17:51;20.60;99.90
15131;DHT22;7666;50.920;4.628;2023-08-07T15:20:38;20.60;99.90
15131;DHT22;7666;50.920;4.628;2023-08-07T15:23:24;20.60;99.90
15131;DHT22;7666;50.920;4.628;2023-08-07T15:26:10;20.80;99.90
15131;DHT22;7666;50.920;4.628;2023-08-07T15:28:56;21.00;99.90
15131;DHT22;7666;50.920;4.628;2023-08-07T15:31:42;21.30;99.90
15131;DHT22;7666;50.920;4.628;2023-08-07T15:34:28;21.30;99.90
15131;DHT22;7666;50.920;4.628;2023-08-07T15:37:14;21.30;99.90
15131;DHT22;7666;50.920;4.628;2023-08-07T15:40:00;21.10;99.90
15131;DHT22;7666;50.920;4.628;2023-08-07T15:42:46;20.80;99.90
15131;DHT22;7666;50.920;4.628;2023-08-07T15:45:33;20.60;99.90
15131;DHT22;7666;50.920;4.628;2023-08-07T15:48:20;20.40;99.90
15131;DHT22;7666;50.920;4.628;2023-08-07T15:51:06;20.40;99.90
15131;DHT22;7666;50.920;4.628;2023-08-07T15:53:52;20.40;99.90
15131;DHT22;7666;50.920;4.628;2023-08-07T15:56:38;20.30;99.90
15131;DHT22;7666;50.920;4.628;2023-08-07T15:59:24;20.40;99.90
15131;DHT22;7666;50.920;4.628;2023-08-07T16:02:12;20.50;99.90
15131;DHT22;7666;50.920;4.628;2023-08-07T16:04:58;20.60;99.90
15131;DHT22;7666;50.920;4.628;2023-08-07T16:07:44;20.70;99.90
15131;DHT22;7666;50.920;4.628;2023-08-07T16:10:31;20.60;99.90
15131;DHT22;7666;50.920;4.628;2023-08-07T16:13:17;20.60;99.90
15131;DHT22;7666;50.920;4.628;2023-08-07T16:16:04;20.60;99.90
15131;DHT22;7666;50.920;4.628;2023-08-07T16:18:50;20.90;99.90
15131;DHT22;7666;50.920;4.628;2023-08-07T16:21:37;21.10;99.90
15131;DHT22;7666;50.920;4.628;2023-08-07T16:24:23;21.00;99.90
15131;DHT22;7666;50.920;4.628;2023-08-07T16:27:09;21.00;99.90
15131;DHT22;7666;50.920;4.628;2023-08-07T16:29:55;20.80;99.90
15131;DHT22;7666;50.920;4.628;2023-08-07T16:32:41;20.50;99.90
15131;DHT22;7666;50.920;4.628;2023-08-07T16:35:27;20.30;99.90
15131;DHT22;7666;50.920;4.628;2023-08-07T16:38:13;20.30;99.90
15131;DHT22;7666;50.920;4.628;2023-08-07T16:40:59;20.40;99.90
15131;DHT22;7666;50.920;4.628;2023-08-07T16:43:45;20.20;99.90
15131;DHT22;7666;50.920;4.628;2023-08-07T16:46:31;20.00;99.90
15131;DHT22;7666;50.920;4.628;2023-08-07T16:49:17;19.80;99.90
15131;DHT22;7666;50.920;4.628;2023-08-07T16:52:03;19.80;99.90
15131;DHT22;7666;50.920;4.628;2023-08-07T16:54:50;19.80;99.90
15131;DHT22;7666;50.920;4.628;2023-08-07T16:57:38;19.80;99.90
15131;DHT22;7666;50.920;4.628;2023-08-07T17:00:25;19.90;99.90
15131;DHT22;7666;50.920;4.628;2023-08-07T17:03:11;19.90;99.90
15131;DHT22;7666;50.920;4.628;2023-08-07T17:05:57;19.90;99.90
15131;DHT22;7666;50.920;4.628;2023-08-07T17:08:43;19.90;99.90
15131;DHT22;7666;50.920;4.628;2023-08-07T17:11:31;19.90;99.90
15131;DHT22;7666;50.920;4.628;2023-08-07T17:14:17;19.90;99.90
15131;DHT22;7666;50.920;4.628;2023-08-07T17:17:03;19.80;99.90
15131;DHT22;7666;50.920;4.628;2023-08-07T17:19:49;19.80;99.90
15131;DHT22;7666;50.920;4.628;2023-08-07T17:22:35;19.90;99.90
15131;DHT22;7666;50.920;4.628;2023-08-07T17:25:21;19.90;99.90
15131;DHT22;7666;50.920;4.628;2023-08-07T17:28:07;20.00;99.90
15131;DHT22;7666;50.920;4.628;2023-08-07T17:30:53;20.00;99.90
15131;DHT22;7666;50.920;4.628;2023-08-07T17:33:39;19.90;99.90
15131;DHT22;7666;50.920;4.628;2023-08-07T17:36:25;19.80;99.90
15131;DHT22;7666;50.920;4.628;2023-08-07T17:39:13;19.70;99.90
15131;DHT22;7666;50.920;4.628;2023-08-07T17:42:01;19.60;99.90
15131;DHT22;7666;50.920;4.628;2023-08-07T17:44:47;19.60;99.90
15131;DHT22;7666;50.920;4.628;2023-08-07T17:47:33;19.50;99.90
15131;DHT22;7666;50.920;4.628;2023-08-07T17:50:19;19.50;99.90
15131;DHT22;7666;50.920;4.628;2023-08-07T17:53:05;19.60;99.90
15131;DHT22;7666;50.920;4.628;2023-08-07T17:55:51;19.60;99.90
15131;DHT22;7666;50.920;4.628;2023-08-07T17:58:37;19.60;99.90
15131;DHT22;7666;50.920;4.628;2023-08-07T18:01:23;19.50;99.90
15131;DHT22;7666;50.920;4.628;2023-08-07T18:04:09;19.40;99.90
15131;DHT22;7666;50.920;4.628;2023-08-07T18:06:55;19.40;99.90
15131;DHT22;7666;50.920;4.628;2023-08-07T18:09:41;19.40;99.90
15131;DHT22;7666;50.920;4.628;2023-08-07T18:12:27;19.40;99.90
15131;DHT22;7666;50.920;4.628;2023-08-07T18:15:14;19.30;99.90
15131;DHT22;7666;50.920;4.628;2023-08-07T18:18:00;19.30;99.90
15131;DHT22;7666;50.920;4.628;2023-08-07T18:20:46;19.20;99.90
15131;DHT22;7666;50.920;4.628;2023-08-07T18:23:32;19.20;99.90
15131;DHT22;7666;50.920;4.628;2023-08-07T18:26:18;19.10;99.90
15131;DHT22;7666;50.920;4.628;2023-08-07T18:29:04;19.00;99.90
15131;DHT22;7666;50.920;4.628;2023-08-07T18:31:50;18.90;99.90
15131;DHT22;7666;50.920;4.628;2023-08-07T18:34:36;18.90;99.90
15131;DHT22;7666;50.920;4.628;2023-08-07T18:37:22;18.80;99.90
15131;DHT22;7666;50.920;4.628;2023-08-07T18:40:09;18.80;99.90
15131;DHT22;7666;50.920;4.628;2023-08-07T18:42:55;18.80;99.90
15131;DHT22;7666;50.920;4.628;2023-08-07T18:45:41;18.70;99.90
15131;DHT22;7666;50.920;4.628;2023-08-07T18:48:27;18.60;99.90
15131;DHT22;7666;50.920;4.628;2023-08-07T18:51:13;18.50;99.90
15131;DHT22;7666;50.920;4.628;2023-08-07T18:53:59;18.30;99.90
15131;DHT22;7666;50.920;4.628;2023-08-07T18:56:45;18.20;99.90
15131;DHT22;7666;50.920;4.628;2023-08-07T18:59:33;18.20;99.90
15131;DHT22;7666;50.920;4.628;2023-08-07T19:02:20;18.10;99.90
15131;DHT22;7666;50.920;4.628;2023-08-07T19:05:06;18.00;99.90
15131;DHT22;7666;50.920;4.628;2023-08-07T19:07:52;17.90;99.90
15131;DHT22;7666;50.920;4.628;2023-08-07T19:10:38;17.80;99.90
15131;DHT22;7666;50.920;4.628;2023-08-07T19:13:24;17.70;99.90
15131;DHT22;7666;50.920;4.628;2023-08-07T19:16:10;17.50;99.90
15131;DHT22;7666;50.920;4.628;2023-08-07T19:18:56;17.40;99.90
15131;DHT22;7666;50.920;4.628;2023-08-07T19:21:42;17.30;99.90
15131;DHT22;7666;50.920;4.628;2023-08-07T19:24:28;17.20;99.90
15131;DHT22;7666;50.920;4.628;2023-08-07T19:27:14;17.10;99.90
15131;DHT22;7666;50.920;4.628;2023-08-07T19:30:00;17.00;99.90
15131;DHT22;7666;50.920;4.628;2023-08-07T19:32:46;16.90;99.90
15131;DHT22;7666;50.920;4.628;2023-08-07T19:35:32;16.80;99.90
15131;DHT22;7666;50.920;4.628;2023-08-07T19:38:20;16.80;99.90
15131;DHT22;7666;50.920;4.628;2023-08-07T19:41:06;16.70;99.90
15131;DHT22;7666;50.920;4.628;2023-08-07T19:43:52;16.60;99.90
15131;DHT22;7666;50.920;4.628;2023-08-07T19:46:38;16.40;99.90
15131;DHT22;7666;50.920;4.628;2023-08-07T19:49:24;16.40;99.90
15131;DHT22;7666;50.920;4.628;2023-08-07T19:52:10;16.40;99.90
15131;DHT22;7666;50.920;4.628;2023-08-07T19:54:56;16.30;99.90
15131;DHT22;7666;50.920;4.628;2023-08-07T19:57:42;16.30;99.90
15131;DHT22;7666;50.920;4.628;2023-08-07T20:00:29;16.20;99.90
15131;DHT22;7666;50.920;4.628;2023-08-07T20:03:14;16.10;99.90
15131;DHT22;7666;50.920;4.628;2023-08-07T20:06:01;16.00;99.90
15131;DHT22;7666;50.920;4.628;2023-08-07T20:08:47;15.90;99.90
15131;DHT22;7666;50.920;4.628;2023-08-07T20:11:37;15.90;99.90
15131;DHT22;7666;50.920;4.628;2023-08-07T20:14:23;15.80;99.90
15131;DHT22;7666;50.920;4.628;2023-08-07T20:17:09;15.70;99.90
15131;DHT22;7666;50.920;4.628;2023-08-07T20:19:55;15.60;99.90
15131;DHT22;7666;50.920;4.628;2023-08-07T20:22:41;15.50;99.90
15131;DHT22;7666;50.920;4.628;2023-08-07T20:25:27;15.50;99.90
15131;DHT22;7666;50.920;4.628;2023-08-07T20:28:13;15.50;99.90
15131;DHT22;7666;50.920;4.628;2023-08-07T20:30:59;15.50;99.90
15131;DHT22;7666;50.920;4.628;2023-08-07T20:33:45;15.50;99.90
15131;DHT22;7666;50.920;4.628;2023-08-07T20:36:31;15.50;99.90
15131;DHT22;7666;50.920;4.628;2023-08-07T20:39:18;15.50;99.90
15131;DHT22;7666;50.920;4.628;2023-08-07T20:42:04;15.50;99.90
15131;DHT22;7666;50.920;4.628;2023-08-07T20:44:50;15.40;99.90
15131;DHT22;7666;50.920;4.628;2023-08-07T20:47:36;15.30;99.90
15131;DHT22;7666;50.920;4.628;2023-08-07T20:50:23;15.30;99.90
15131;DHT22;7666;50.920;4.628;2023-08-07T20:53:09;15.30;99.90
15131;DHT22;7666;50.920;4.628;2023-08-07T20:55:55;15.30;99.90
15131;DHT22;7666;50.920;4.628;2023-08-07T20:58:41;15.30;99.90
15131;DHT22;7666;50.920;4.628;2023-08-07T21:01:27;15.30;99.90
15131;DHT22;7666;50.920;4.628;2023-08-07T21:04:13;15.30;99.90
15131;DHT22;7666;50.920;4.628;2023-08-07T21:06:59;15.30;99.90
15131;DHT22;7666;50.920;4.628;2023-08-07T21:09:45;15.30;99.90
15131;DHT22;7666;50.920;4.628;2023-08-07T21:12:31;15.30;99.90
15131;DHT22;7666;50.920;4.628;2023-08-07T21:15:17;15.30;99.90
15131;DHT22;7666;50.920;4.628;2023-08-07T21:18:03;15.30;99.90
15131;DHT22;7666;50.920;4.628;2023-08-07T21:20:50;15.30;99.90
15131;DHT22;7666;50.920;4.628;2023-08-07T21:23:35;15.30;99.90
15131;DHT22;7666;50.920;4.628;2023-08-07T21:26:21;15.30;99.90
15131;DHT22;7666;50.920;4.628;2023-08-07T21:29:07;15.30;99.90
15131;DHT22;7666;50.920;4.628;2023-08-07T21:31:53;15.30;99.90
15131;DHT22;7666;50.920;4.628;2023-08-07T21:34:39;15.20;99.90
15131;DHT22;7666;50.920;4.628;2023-08-07T21:37:32;15.20;99.90
15131;DHT22;7666;50.920;4.628;2023-08-07T21:40:19;15.10;99.90
15131;DHT22;7666;50.920;4.628;2023-08-07T21:43:05;15.10;99.90
15131;DHT22;7666;50.920;4.628;2023-08-07T21:45:51;15.10;99.90
15131;DHT22;7666;50.920;4.628;2023-08-07T21:48:37;15.10;99.90
15131;DHT22;7666;50.920;4.628;2023-08-07T21:51:23;15.10;99.90
15131;DHT22;7666;50.920;4.628;2023-08-07T21:54:10;15.10;99.90
15131;DHT22;7666;50.920;4.628;2023-08-07T21:56:56;15.10;99.90
15131;DHT22;7666;50.920;4.628;2023-08-07T21:59:42;15.10;99.90
15131;DHT22;7666;50.920;4.628;2023-08-07T22:02:28;15.10;99.90
15131;DHT22;7666;50.920;4.628;2023-08-07T22:05:14;15.00;99.90
15131;DHT22;7666;50.920;4.628;2023-08-07T22:08:00;15.00;99.90
15131;DHT22;7666;50.920;4.628;2023-08-07T22:10:46;15.00;99.90
15131;DHT22;7666;50.920;4.628;2023-08-07T22:13:32;15.00;99.90
15131;DHT22;7666;50.920;4.628;2023-08-07T22:16:18;15.00;99.90
15131;DHT22;7666;50.920;4.628;2023-08-07T22:19:04;15.00;99.90
15131;DHT22;7666;50.920;4.628;2023-08-07T22:21:50;15.00;99.90
15131;DHT22;7666;50.920;4.628;2023-08-07T22:24:36;15.00;99.90
15131;DHT22;7666;50.920;4.628;2023-08-07T22:27:22;15.00;99.90
15131;DHT22;7666;50.920;4.628;2023-08-07T22:30:09;15.00;99.90
15131;DHT22;7666;50.920;4.628;2023-08-07T22:32:55;14.90;99.90
15131;DHT22;7666;50.920;4.628;2023-08-07T22:35:41;14.90;99.90
15131;DHT22;7666;50.920;4.628;2023-08-07T22:38:27;14.80;99.90
15131;DHT22;7666;50.920;4.628;2023-08-07T22:41:13;14.80;99.90
15131;DHT22;7666;50.920;4.628;2023-08-07T22:44:00;14.80;99.90
15131;DHT22;7666;50.920;4.628;2023-08-07T22:46:46;14.80;99.90
15131;DHT22;7666;50.920;4.628;2023-08-07T22:49:32;14.80;99.90
15131;DHT22;7666;50.920;4.628;2023-08-07T22:52:18;14.70;99.90
15131;DHT22;7666;50.920;4.628;2023-08-07T22:55:04;14.70;99.90
15131;DHT22;7666;50.920;4.628;2023-08-07T22:57:51;14.70;99.90
15131;DHT22;7666;50.920;4.628;2023-08-07T23:00:37;14.70;99.90
15131;DHT22;7666;50.920;4.628;2023-08-07T23:03:23;14.70;99.90
15131;DHT22;7666;50.920;4.628;2023-08-07T23:06:10;14.60;99.90
15131;DHT22;7666;50.920;4.628;2023-08-07T23:08:56;14.60;99.90
15131;DHT22;7666;50.920;4.628;2023-08-07T23:11:46;14.60;99.90
15131;DHT22;7666;50.920;4.628;2023-08-07T23:14:32;14.60;99.90
15131;DHT22;7666;50.920;4.628;2023-08-07T23:17:18;14.60;99.90
15131;DHT22;7666;50.920;4.628;2023-08-07T23:20:05;14.60;99.90
15131;DHT22;7666;50.920;4.628;2023-08-07T23:22:51;14.50;99.90
15131;DHT22;7666;50.920;4.628;2023-08-07T23:25:37;14.50;99.90
15131;DHT22;7666;50.920;4.628;2023-08-07T23:28:23;14.50;99.90
15131;DHT22;7666;50.920;4.628;2023-08-07T23:31:09;14.50;99.90
15131;DHT22;7666;50.920;4.628;2023-08-07T23:33:55;14.50;99.90
15131;DHT22;7666;50.920;4.628;2023-08-07T23:36:41;14.50;99.90
15131;DHT22;7666;50.920;4.628;2023-08-07T23:39:27;14.40;99.90
15131;DHT22;7666;50.920;4.628;2023-08-07T23:42:13;14.40;99.90
15131;DHT22;7666;50.920;4.628;2023-08-07T23:44:58;14.40;99.90
15131;DHT22;7666;50.920;4.628;2023-08-07T23:47:45;14.40;99.90
15131;DHT22;7666;50.920;4.628;2023-08-07T23:50:30;14.40;99.90
15131;DHT22;7666;50.920;4.628;2023-08-07T23:53:16;14.40;99.90
15131;DHT22;7666;50.920;4.628;2023-08-07T23:56:03;14.30;99.90
15131;DHT22;7666;50.920;4.628;2023-08-07T23:58:49;14.30;99.90
